createdAt,value
2022-10-22T00:02:07.413Z,31.50
2022-10-22T00:04:35.607Z,36.60
2022-10-22T00:07:02.493Z,36.20
2022-10-22T00:09:28.999Z,29.70
2022-10-22T00:11:55.666Z,24.70
2022-10-22T00:14:22.185Z,29.70
2022-10-22T00:16:48.860Z,21.20
2022-10-22T00:19:15.537Z,22.70
2022-10-22T00:21:42.131Z,22.80
2022-10-22T00:24:08.628Z,21.10
2022-10-22T00:26:35.265Z,27.00
2022-10-22T00:29:01.773Z,38.80
2022-10-22T00:31:28.377Z,27.90
2022-10-22T00:33:54.916Z,24.80
2022-10-22T00:36:21.808Z,26.40
2022-10-22T00:38:48.368Z,25.10
2022-10-22T00:41:15.079Z,25.70
2022-10-22T00:44:00.232Z,22.70
2022-10-22T00:46:27.240Z,20.10
2022-10-22T00:48:58.538Z,17.90
2022-10-22T00:51:29.508Z,19.50
2022-10-22T00:54:01.689Z,24.90
2022-10-22T00:56:28.603Z,26.20
2022-10-22T00:58:58.121Z,25.80
2022-10-22T01:01:29.085Z,23.70
2022-10-22T01:03:56.373Z,17.60
2022-10-22T01:06:31.529Z,19.70
2022-10-22T01:09:19.261Z,17.20
2022-10-22T01:12:01.383Z,20.20
2022-10-22T01:14:40.024Z,20.60
2022-10-22T01:17:29.622Z,16.50
2022-10-22T01:20:11.321Z,17.60
2022-10-22T01:22:52.964Z,18.60
2022-10-22T01:25:36.565Z,17.20
2022-10-22T01:28:39.301Z,17.80
2022-10-22T01:31:08.404Z,14.90
2022-10-22T01:33:35.794Z,17.90
2022-10-22T01:36:03.976Z,20.00
2022-10-22T01:38:31.407Z,20.50
2022-10-22T01:40:59.570Z,19.10
2022-10-22T01:43:26.125Z,13.60
2022-10-22T01:46:02.906Z,14.10
2022-10-22T01:48:54.786Z,14.70
2022-10-22T01:51:54.837Z,15.00
2022-10-22T01:54:35.487Z,16.10
2022-10-22T01:57:14.347Z,18.80
2022-10-22T02:00:09.093Z,14.80
2022-10-22T02:02:42.557Z,16.60
2022-10-22T02:05:27.305Z,15.90
2022-10-22T02:07:59.546Z,18.60
2022-10-22T02:10:28.919Z,20.60
2022-10-22T02:12:57.487Z,18.80
2022-10-22T02:15:27.260Z,16.80
2022-10-22T02:17:56.444Z,16.80
2022-10-22T02:20:28.330Z,16.70
2022-10-22T02:22:55.935Z,21.30
2022-10-22T02:25:27.092Z,16.40
2022-10-22T02:28:01.781Z,19.90
2022-10-22T02:30:32.313Z,18.20
2022-10-22T02:33:21.144Z,18.50
2022-10-22T02:35:50.879Z,18.10
2022-10-22T02:38:18.636Z,11.90
2022-10-22T02:40:46.181Z,13.30
2022-10-22T02:43:12.687Z,15.30
2022-10-22T02:45:39.388Z,16.00
2022-10-22T02:48:06.095Z,17.00
2022-10-22T02:50:32.687Z,14.30
2022-10-22T02:52:59.247Z,15.10
2022-10-22T02:55:25.796Z,12.00
2022-10-22T02:57:52.365Z,13.80
2022-10-22T03:00:18.896Z,12.40
2022-10-22T03:02:45.565Z,14.60
2022-10-22T03:05:12.381Z,15.00
2022-10-22T03:07:39.231Z,15.20
2022-10-22T03:10:06.443Z,13.90
2022-10-22T03:12:32.940Z,13.80
2022-10-22T03:14:59.496Z,15.10
2022-10-22T03:17:25.958Z,13.50
2022-10-22T03:19:52.420Z,13.10
2022-10-22T03:22:25.880Z,16.90
2022-10-22T03:24:55.230Z,14.90
2022-10-22T03:27:22.651Z,28.90
2022-10-22T03:29:51.915Z,30.20
2022-10-22T03:32:18.597Z,23.10
2022-10-22T03:34:46.141Z,24.20
2022-10-22T03:37:13.222Z,25.00
2022-10-22T03:39:40.103Z,18.80
2022-10-22T03:42:07.617Z,19.20
2022-10-22T03:44:37.764Z,20.00
2022-10-22T03:47:04.928Z,19.30
2022-10-22T03:49:31.714Z,20.00
2022-10-22T03:51:58.227Z,17.20
2022-10-22T03:54:24.810Z,16.80
2022-10-22T03:56:51.411Z,19.00
2022-10-22T03:59:17.981Z,17.10
2022-10-22T04:01:44.497Z,13.80
2022-10-22T04:04:11.004Z,17.80
2022-10-22T04:06:37.599Z,20.40
2022-10-22T04:09:04.287Z,21.30
2022-10-22T04:11:30.997Z,13.70
2022-10-22T04:13:57.548Z,14.20
2022-10-22T04:16:26.343Z,15.90
2022-10-22T04:18:55.219Z,22.80
2022-10-22T04:21:21.998Z,20.00
2022-10-22T04:23:51.524Z,23.40
2022-10-22T04:26:19.549Z,37.00
2022-10-22T04:28:47.678Z,36.60
2022-10-22T04:31:18.161Z,33.30
2022-10-22T04:33:45.244Z,35.80
2022-10-22T04:36:14.782Z,29.10
2022-10-22T04:38:42.918Z,21.60
2022-10-22T04:41:24.485Z,38.60
2022-10-22T04:43:53.151Z,24.00
2022-10-22T04:46:20.105Z,18.10
2022-10-22T04:48:47.010Z,17.30
2022-10-22T04:51:17.093Z,16.60
2022-10-22T04:53:43.960Z,22.40
2022-10-22T04:56:20.872Z,19.80
2022-10-22T04:58:49.367Z,20.90
2022-10-22T05:01:21.903Z,27.30
2022-10-22T05:03:49.915Z,25.40
2022-10-22T05:06:16.915Z,34.30
2022-10-22T05:08:43.731Z,27.40
2022-10-22T05:11:11.365Z,30.30
2022-10-22T05:13:38.103Z,31.50
2022-10-22T05:16:04.839Z,38.70
2022-10-22T05:18:37.390Z,33.90
2022-10-22T05:21:07.780Z,34.50
2022-10-22T05:23:34.433Z,62.60
2022-10-22T05:26:02.946Z,53.50
2022-10-22T05:28:29.923Z,54.50
2022-10-22T05:30:58.836Z,57.20
2022-10-22T05:33:27.192Z,55.30
2022-10-22T05:35:54.394Z,68.10
2022-10-22T05:38:21.516Z,112.50
2022-10-22T05:40:48.194Z,97.80
2022-10-22T05:43:14.915Z,125.60
2022-10-22T05:45:42.398Z,172.50
2022-10-22T05:48:09.384Z,157.00
2022-10-22T05:50:36.725Z,122.60
2022-10-22T05:53:06.610Z,80.70
2022-10-22T05:55:38.241Z,73.70
2022-10-22T05:58:04.752Z,66.20
2022-10-22T06:00:31.395Z,60.60
2022-10-22T06:02:58.122Z,43.40
2022-10-22T06:05:24.616Z,50.30
2022-10-22T06:07:51.305Z,42.30
2022-10-22T06:10:20.389Z,52.50
2022-10-22T06:12:48.117Z,40.40
2022-10-22T06:15:17.859Z,38.20
2022-10-22T06:17:45.342Z,41.80
2022-10-22T06:20:12.570Z,43.90
2022-10-22T06:22:39.688Z,40.50
2022-10-22T06:25:07.954Z,37.70
2022-10-22T06:27:34.609Z,42.90
2022-10-22T06:30:01.314Z,50.00
2022-10-22T06:32:28.116Z,39.50
2022-10-22T06:34:54.635Z,53.40
2022-10-22T06:37:21.324Z,39.00
2022-10-22T06:39:47.837Z,44.90
2022-10-22T06:42:14.610Z,57.00
2022-10-22T06:44:41.386Z,45.10
2022-10-22T06:47:07.900Z,52.70
2022-10-22T06:49:34.588Z,37.10
2022-10-22T06:52:01.140Z,30.20
2022-10-22T06:54:27.699Z,43.80
2022-10-22T06:56:54.405Z,26.10
2022-10-22T06:59:21.073Z,29.40
2022-10-22T07:01:47.882Z,26.60
2022-10-22T07:04:14.585Z,26.10
2022-10-22T07:06:41.233Z,22.30
2022-10-22T07:09:08.038Z,24.40
2022-10-22T07:11:42.514Z,24.20
2022-10-22T07:14:10.106Z,20.80
2022-10-22T07:16:37.296Z,22.20
2022-10-22T07:19:04.530Z,24.40
2022-10-22T07:21:31.917Z,34.90
2022-10-22T07:23:59.220Z,36.40
2022-10-22T07:26:30.124Z,34.80
2022-10-22T07:28:56.821Z,21.30
2022-10-22T07:31:23.376Z,17.50
2022-10-22T07:33:50.234Z,16.40
2022-10-22T07:36:17.109Z,19.10
2022-10-22T07:38:46.529Z,13.50
2022-10-22T07:41:15.337Z,16.60
2022-10-22T07:43:42.819Z,20.20
2022-10-22T07:46:10.114Z,22.40
2022-10-22T07:48:36.946Z,20.60
2022-10-22T07:51:03.701Z,19.80
2022-10-22T07:53:30.326Z,20.60
2022-10-22T07:55:56.994Z,17.80
2022-10-22T07:58:24.132Z,17.70
2022-10-22T08:00:55.216Z,21.00
2022-10-22T08:03:22.409Z,14.80
2022-10-22T08:05:49.111Z,15.30
2022-10-22T08:08:16.237Z,16.10
2022-10-22T08:10:43.523Z,15.30
2022-10-22T08:13:10.174Z,13.00
2022-10-22T08:15:37.468Z,16.10
2022-10-22T08:18:04.380Z,15.50
2022-10-22T08:20:31.455Z,14.20
2022-10-22T08:23:02.566Z,15.20
2022-10-22T08:25:29.398Z,14.50
2022-10-22T08:27:55.950Z,16.40
2022-10-22T08:30:22.701Z,15.80
2022-10-22T08:32:51.693Z,21.30
2022-10-22T08:35:21.350Z,15.30
2022-10-22T08:37:47.944Z,12.50
2022-10-22T08:40:31.135Z,12.20
2022-10-22T08:43:45.211Z,16.90
2022-10-22T08:46:37.027Z,18.40
2022-10-22T08:51:39.812Z,18.90
2022-10-22T08:54:18.833Z,20.10
2022-10-22T08:56:55.945Z,15.90
2022-10-22T08:59:31.017Z,20.40
2022-10-22T09:01:57.678Z,15.70
2022-10-22T09:04:27.988Z,16.30
2022-10-22T09:06:58.170Z,16.80
2022-10-22T09:09:35.313Z,20.00
2022-10-22T09:12:04.621Z,16.80
2022-10-22T09:14:31.341Z,24.30
2022-10-22T09:17:43.734Z,22.50
2022-10-22T09:20:26.149Z,25.30
2022-10-22T09:23:14.109Z,23.40
2022-10-22T09:25:42.308Z,24.70
2022-10-22T09:28:09.399Z,22.10
2022-10-22T09:30:39.647Z,23.30
2022-10-22T09:33:24.835Z,32.90
2022-10-22T09:35:52.793Z,22.40
2022-10-22T09:38:25.194Z,29.10
2022-10-22T09:40:55.183Z,31.80
2022-10-22T09:43:22.494Z,28.90
2022-10-22T09:46:05.707Z,31.40
2022-10-22T09:48:36.762Z,23.80
2022-10-22T09:51:44.799Z,26.00
2022-10-22T09:54:25.187Z,27.30
2022-10-22T09:57:16.993Z,28.80
2022-10-22T09:59:51.803Z,28.40
2022-10-22T10:02:37.464Z,31.60
2022-10-22T10:05:06.526Z,28.90
2022-10-22T10:07:35.361Z,30.30
2022-10-22T10:10:11.592Z,30.80
2022-10-22T10:12:55.876Z,28.10
2022-10-22T10:15:38.300Z,22.30
2022-10-22T10:18:35.898Z,19.90
2022-10-22T10:21:08.252Z,14.90
2022-10-22T10:23:53.222Z,14.80
2022-10-22T10:26:37.244Z,16.90
2022-10-22T10:29:11.466Z,15.60
2022-10-22T10:32:02.627Z,20.40
2022-10-22T10:34:44.569Z,17.00
2022-10-22T10:37:40.858Z,16.80
2022-10-22T10:40:32.876Z,15.10
2022-10-22T10:43:26.004Z,14.80
2022-10-22T10:49:13.653Z,14.50
2022-10-22T10:51:45.545Z,18.40
2022-10-22T10:54:34.907Z,11.00
2022-10-22T10:57:04.546Z,10.20
2022-10-22T10:59:38.364Z,13.20
2022-10-22T11:02:42.134Z,11.20
2022-10-22T11:05:33.531Z,14.60
2022-10-22T11:08:10.768Z,18.10
2022-10-22T11:10:51.198Z,31.80
2022-10-22T11:13:26.923Z,75.00
2022-10-22T11:16:29.272Z,25.40
2022-10-22T11:19:22.554Z,13.90
2022-10-22T11:21:55.625Z,35.70
2022-10-22T11:24:30.281Z,20.10
2022-10-22T11:27:41.538Z,31.60
2022-10-22T11:30:13.810Z,24.30
2022-10-22T11:32:48.630Z,13.60
2022-10-22T11:35:25.668Z,19.70
2022-10-22T11:37:55.725Z,23.00
2022-10-22T11:40:35.390Z,21.10
2022-10-22T11:43:07.931Z,20.90
2022-10-22T11:45:40.190Z,13.60
2022-10-22T11:48:09.699Z,15.70
2022-10-22T11:50:46.448Z,12.10
2022-10-22T11:53:12.974Z,26.70
2022-10-22T11:55:44.938Z,13.10
2022-10-22T11:58:28.983Z,12.30
2022-10-22T12:00:57.063Z,11.70
2022-10-22T12:03:39.209Z,13.00
2022-10-22T12:06:12.006Z,10.40
2022-10-22T12:08:53.760Z,13.80
2022-10-22T12:11:20.453Z,10.80
2022-10-22T12:14:29.179Z,11.50
2022-10-22T12:17:04.662Z,11.40
2022-10-22T12:19:35.633Z,10.00
2022-10-22T12:22:16.258Z,9.30
2022-10-22T12:24:46.689Z,9.90
2022-10-22T12:27:22.617Z,8.30
2022-10-22T12:29:57.851Z,11.90
2022-10-22T12:32:38.009Z,11.40
2022-10-22T12:35:16.233Z,12.30
2022-10-22T12:37:43.438Z,12.80
2022-10-22T12:40:17.609Z,10.40
2022-10-22T12:42:59.758Z,9.40
2022-10-22T12:45:28.918Z,14.90
2022-10-22T12:47:58.871Z,10.70
2022-10-22T12:50:39.572Z,9.90
2022-10-22T12:53:14.539Z,8.00
2022-10-22T12:55:41.461Z,11.80
2022-10-22T12:58:08.100Z,8.60
2022-10-22T13:00:35.902Z,11.50
2022-10-22T13:03:06.109Z,12.50
2022-10-22T13:05:38.491Z,14.00
2022-10-22T13:08:09.615Z,25.20
2022-10-22T13:10:39.857Z,19.20
2022-10-22T13:13:06.878Z,40.30
2022-10-22T13:15:38.826Z,84.80
2022-10-22T13:18:24.467Z,29.90
2022-10-22T13:21:01.980Z,17.20
2022-10-22T13:23:31.132Z,11.30
2022-10-22T13:25:58.576Z,16.70
2022-10-22T13:28:26.897Z,14.30
2022-10-22T13:30:54.619Z,81.70
2022-10-22T13:33:32.111Z,18.00
2022-10-22T13:35:58.766Z,16.70
2022-10-22T13:38:26.800Z,12.50
2022-10-22T13:40:53.544Z,11.40
2022-10-22T13:43:20.474Z,12.30
2022-10-22T13:45:51.517Z,17.10
2022-10-22T13:48:21.385Z,12.30
2022-10-22T13:50:49.464Z,9.80
2022-10-22T13:53:21.312Z,13.00
2022-10-22T13:55:49.504Z,16.10
2022-10-22T13:58:19.107Z,14.20
2022-10-22T14:00:50.012Z,19.50
2022-10-22T14:03:20.870Z,261.40
2022-10-22T14:05:48.316Z,47.10
2022-10-22T14:08:16.848Z,23.80
2022-10-22T14:10:43.343Z,14.60
2022-10-22T14:13:10.912Z,17.80
2022-10-22T14:15:38.204Z,15.70
2022-10-22T14:18:06.500Z,20.90
2022-10-22T14:20:36.177Z,86.20
2022-10-22T14:23:19.263Z,32.50
2022-10-22T14:25:46.477Z,76.20
2022-10-22T14:28:13.703Z,17.50
2022-10-22T14:30:40.660Z,25.30
2022-10-22T14:33:14.911Z,10.70
2022-10-22T14:35:41.839Z,9.30
2022-10-22T14:38:09.009Z,8.30
2022-10-22T14:40:38.360Z,14.70
2022-10-22T14:43:05.021Z,11.90
2022-10-22T14:45:31.772Z,14.20
2022-10-22T14:47:58.412Z,11.70
2022-10-22T14:50:25.077Z,10.70
2022-10-22T14:52:52.040Z,11.30
2022-10-22T14:55:19.642Z,11.60
2022-10-22T14:57:46.275Z,18.20
2022-10-22T15:00:16.380Z,24.00
2022-10-22T15:02:43.580Z,14.30
2022-10-22T15:05:10.943Z,13.20
2022-10-22T15:07:38.692Z,12.00
2022-10-22T15:10:06.903Z,72.70
2022-10-22T15:12:33.766Z,91.60
2022-10-22T15:15:00.451Z,44.40
2022-10-22T15:17:27.561Z,49.80
2022-10-22T15:19:55.668Z,48.40
2022-10-22T15:22:22.267Z,41.20
2022-10-22T15:24:49.069Z,44.90
2022-10-22T15:27:15.709Z,40.90
2022-10-22T15:29:42.277Z,32.30
2022-10-22T15:32:12.170Z,38.30
2022-10-22T15:34:39.921Z,46.20
2022-10-22T15:37:10.003Z,43.10
2022-10-22T15:39:41.037Z,41.70
2022-10-22T15:42:09.058Z,39.60
2022-10-22T15:44:35.833Z,53.80
2022-10-22T15:47:03.725Z,46.40
2022-10-22T15:49:30.471Z,28.90
2022-10-22T15:51:57.141Z,23.10
2022-10-22T15:54:27.493Z,27.50
2022-10-22T15:56:55.073Z,22.30
2022-10-22T15:59:22.299Z,24.00
2022-10-22T16:01:48.829Z,25.00
2022-10-22T16:04:15.450Z,27.00
2022-10-22T16:06:47.468Z,31.10
2022-10-22T16:09:20.478Z,40.50
2022-10-22T16:11:47.803Z,33.30
2022-10-22T16:14:17.704Z,28.80
2022-10-22T16:16:47.157Z,25.00
2022-10-22T16:19:15.771Z,24.10
2022-10-22T16:21:42.448Z,22.80
2022-10-22T16:24:10.081Z,22.80
2022-10-22T16:26:36.780Z,18.30
2022-10-22T16:29:05.128Z,20.30
2022-10-22T16:31:31.892Z,25.80
2022-10-22T16:33:58.432Z,30.30
2022-10-22T16:36:25.120Z,28.20
2022-10-22T16:38:51.860Z,27.20
2022-10-22T16:41:20.737Z,36.20
2022-10-22T16:43:49.113Z,34.20
2022-10-22T16:46:19.195Z,41.00
2022-10-22T16:48:50.176Z,44.50
2022-10-22T16:51:19.608Z,40.20
2022-10-22T16:53:46.528Z,21.40
2022-10-22T16:56:15.310Z,27.40
2022-10-22T17:01:16.955Z,16.70
2022-10-22T17:03:44.765Z,17.20
2022-10-22T17:06:11.724Z,17.30
2022-10-22T17:08:39.927Z,16.30
2022-10-22T17:11:12.233Z,14.10
2022-10-22T17:13:43.088Z,10.20
2022-10-22T17:16:12.277Z,24.70
2022-10-22T17:18:40.730Z,12.20
2022-10-22T17:21:09.489Z,13.60
2022-10-22T17:23:36.702Z,13.80
2022-10-22T17:26:06.308Z,15.50
2022-10-22T17:28:35.570Z,12.70
2022-10-22T17:31:07.179Z,19.00
2022-10-22T17:33:35.374Z,24.80
2022-10-22T17:36:08.331Z,18.90
2022-10-22T17:38:34.967Z,16.70
2022-10-22T17:41:04.186Z,33.30
2022-10-22T17:43:35.034Z,27.80
2022-10-22T17:46:06.946Z,31.80
2022-10-22T17:48:34.153Z,25.70
2022-10-22T17:51:00.857Z,18.00
2022-10-22T17:53:27.380Z,13.40
2022-10-22T17:56:09.385Z,13.60
2022-10-22T17:58:36.650Z,10.60
2022-10-22T18:01:04.535Z,11.10
2022-10-22T18:03:32.428Z,11.60
2022-10-22T18:06:06.768Z,9.00
2022-10-22T18:08:33.419Z,16.60
2022-10-22T18:11:00.084Z,16.50
2022-10-22T18:13:26.812Z,16.70
2022-10-22T18:15:55.332Z,17.50
2022-10-22T18:18:24.945Z,19.80
2022-10-22T18:20:52.277Z,25.60
2022-10-22T18:23:19.837Z,27.20
2022-10-22T18:25:47.983Z,26.60
2022-10-22T18:28:17.110Z,29.60
2022-10-22T18:30:45.371Z,33.20
2022-10-22T18:33:14.313Z,36.40
2022-10-22T18:35:41.037Z,34.70
2022-10-22T18:38:09.358Z,28.30
2022-10-22T18:40:43.933Z,26.60
2022-10-22T18:43:10.570Z,50.80
2022-10-22T18:45:42.229Z,67.70
2022-10-22T18:48:09.100Z,45.00
2022-10-22T18:50:35.886Z,40.10
2022-10-22T18:53:02.506Z,45.20
2022-10-22T18:55:29.183Z,45.30
2022-10-22T18:57:55.781Z,42.00
2022-10-22T19:00:22.359Z,56.60
2022-10-22T19:02:48.897Z,60.40
2022-10-22T19:05:15.602Z,64.50
2022-10-22T19:07:42.560Z,42.00
2022-10-22T19:10:09.485Z,24.80
2022-10-22T19:12:36.084Z,12.40
2022-10-22T19:15:02.715Z,8.50
2022-10-22T19:17:29.816Z,11.80
2022-10-22T19:19:56.370Z,10.70
2022-10-22T19:22:23.046Z,9.90
2022-10-22T19:24:50.129Z,9.00
2022-10-22T19:27:17.892Z,8.90
2022-10-22T19:29:45.594Z,10.80
2022-10-22T19:32:12.855Z,8.60
2022-10-22T19:34:40.485Z,6.40
2022-10-22T19:37:07.355Z,10.10
2022-10-22T19:39:34.446Z,7.50
2022-10-22T19:42:01.032Z,9.70
2022-10-22T19:44:27.584Z,6.20
2022-10-22T19:46:54.155Z,10.10
2022-10-22T19:49:22.920Z,7.00
2022-10-22T19:51:49.727Z,9.10
2022-10-22T19:54:18.181Z,8.40
2022-10-22T19:56:45.723Z,10.70
2022-10-22T19:59:14.450Z,8.90
2022-10-22T20:04:07.697Z,11.40
2022-10-22T20:06:34.293Z,10.40
2022-10-22T20:09:00.820Z,10.90
2022-10-22T20:11:28.922Z,8.50
2022-10-22T20:13:56.678Z,8.90
2022-10-22T20:16:27.725Z,8.80
2022-10-22T20:18:54.249Z,10.40
2022-10-22T20:21:21.301Z,9.60
2022-10-22T20:23:52.426Z,7.10
2022-10-22T20:26:19.975Z,11.90
2022-10-22T20:28:46.505Z,12.20
2022-10-22T20:31:16.926Z,10.80
2022-10-22T20:33:43.573Z,12.00
2022-10-22T20:36:15.716Z,11.30
2022-10-22T20:38:42.581Z,15.80
2022-10-22T20:41:15.172Z,12.80
2022-10-22T20:43:45.928Z,12.90
2022-10-22T20:46:19.307Z,14.80
2022-10-22T20:48:46.449Z,11.90
2022-10-22T20:51:12.995Z,13.30
2022-10-22T20:53:39.484Z,13.00
2022-10-22T20:56:06.337Z,13.00
2022-10-22T20:58:33.064Z,12.60
2022-10-22T21:01:08.676Z,13.00
2022-10-22T21:03:36.891Z,13.70
2022-10-22T21:06:04.804Z,14.10
2022-10-22T21:08:31.488Z,13.10
2022-10-22T21:10:57.981Z,15.50
2022-10-22T21:13:24.549Z,14.00
2022-10-22T21:15:51.149Z,15.60
2022-10-22T21:18:17.725Z,11.80
2022-10-22T21:20:44.180Z,9.90
2022-10-22T21:23:10.780Z,10.50
2022-10-22T21:25:40.746Z,10.10
2022-10-22T21:28:10.333Z,9.80
2022-10-22T21:30:44.848Z,10.40
2022-10-22T21:33:11.339Z,10.50
2022-10-22T21:35:37.976Z,10.40
2022-10-22T21:38:07.093Z,9.50
2022-10-22T21:40:36.894Z,8.50
2022-10-22T21:43:03.500Z,10.80
2022-10-22T21:45:30.072Z,8.50
2022-10-22T21:47:56.637Z,9.70
2022-10-22T21:50:23.109Z,8.10
2022-10-22T21:52:49.690Z,10.50
2022-10-22T21:55:16.253Z,6.80
2022-10-22T21:57:43.073Z,7.70
2022-10-22T22:00:12.088Z,9.40
2022-10-22T22:02:45.412Z,8.90
2022-10-22T22:05:12.057Z,9.20
2022-10-22T22:07:38.816Z,7.70
2022-10-22T22:10:06.019Z,9.20
2022-10-22T22:12:32.487Z,9.20
2022-10-22T22:14:59.069Z,9.50
2022-10-22T22:17:25.615Z,10.50
2022-10-22T22:19:52.654Z,6.60
2022-10-22T22:22:19.220Z,7.10
2022-10-22T22:24:45.773Z,9.80
2022-10-22T22:27:12.965Z,7.30
2022-10-22T22:29:39.580Z,8.00
2022-10-22T22:32:06.082Z,6.00
2022-10-22T22:34:32.658Z,9.20
2022-10-22T22:36:59.292Z,5.20
2022-10-22T22:39:26.012Z,6.50
2022-10-22T22:41:52.489Z,7.00
2022-10-22T22:44:19.066Z,5.10
2022-10-22T22:46:45.865Z,4.10
2022-10-22T22:49:13.379Z,4.60
2022-10-22T22:51:39.986Z,1.90
2022-10-22T22:54:06.717Z,2.90
2022-10-22T22:56:36.482Z,3.00
2022-10-22T22:59:05.412Z,3.40
2022-10-22T23:01:37.386Z,4.30
2022-10-22T23:04:11.973Z,3.90
2022-10-22T23:06:39.645Z,2.50
2022-10-22T23:09:09.747Z,3.40
2022-10-22T23:11:37.643Z,2.70
2022-10-22T23:14:05.968Z,2.70
2022-10-22T23:16:36.074Z,3.80
2022-10-22T23:19:04.495Z,3.30
2022-10-22T23:21:34.306Z,3.10
2022-10-22T23:24:04.205Z,5.10
2022-10-22T23:26:36.947Z,3.90
2022-10-22T23:29:06.735Z,4.90
2022-10-22T23:31:33.943Z,4.80
2022-10-22T23:34:00.610Z,4.80
2022-10-22T23:36:28.044Z,4.30
2022-10-22T23:38:55.060Z,4.60
2022-10-22T23:41:21.868Z,4.70
2022-10-22T23:43:50.154Z,5.90
2022-10-22T23:46:16.638Z,5.10
2022-10-22T23:48:43.293Z,4.60
2022-10-22T23:51:15.710Z,3.80
2022-10-22T23:53:44.181Z,5.70
2022-10-22T23:56:17.104Z,5.30
2022-10-22T23:58:44.137Z,5.00
